AWG-1

EHMA · Friesland, 荷兰

罗盘
风向 的 风向 180° 直升机
风: 3 kt, 1 beaufort
0 ft 1.000 2.000 3.000 4.000 5.000
未检测到零云
METAR EHLW 072025Z AUTO 18003KT 8000 BR NCD M01/M02 Q1039 BLU

METAR AWG-1 - EHMA

AWG-1是,荷兰中的直升机场。 该领域的国际民航组织标志是EHMA.

这份报告是针对2023年2月7日 21:25, 当地时间在Leeuwarden Air Base进行的。

机场观察

风向为180°,速度为3 kt。

可见度为8 km。

有未检测到零云。 没有观察到天花板。

当前天气为薄雾。 温度为-1 °C,阵风为-5 °C。 露点为-2 °C,相对湿度为93%。 海平面上的气压为1039 hPa (QNH)。

白天

今天,太阳从08:10升起,在17:29降落。 这适用于AWG-1,世界夏令时可能有所不同。 当地时间与世界标准时间之间的时差为+1 小时。 当前,没有夏令时有效。

公司介绍

我们没有关于这个机场的公司信息。

体会

到Vliegles.nl去找飞行课程,跳伞和其他飞行体验。 浏览页面,了解AWG-1附近所有可用的活动。 你也可以使用搜索功能来寻找你所在地附近的特定飞行课程、跳伞或其他飞行体验。

乌云

- NCD 未检测到零云

温度 & 天气

天气 薄雾
温度 -1 °C
露点 -2 °C
相对湿度 93%
风寒 -5 °C
Kp-index 3 (0-9)

白天

日出
08:10 (10:27)
中午
12:51
日落
17:31

小工具

你想在你的网站上有一个关于AWG-1的当前航空天气(METAR)的小部件吗?

显示HTML代码

我们和第三方通过cookies跟踪您在我们网站上的互联网行为。如果你继续,我们认为你同意我们的饼干政策